sensor_id;sensor_type;location;lat;lon;timestamp;P1;durP1;ratioP1;P2;durP2;ratioP2
68858;SDS011;55864;49.238;8.092;2023-06-14T00:00:27;8.25;;;4.55;;
68858;SDS011;55864;49.238;8.092;2023-06-14T00:02:27;11.63;;;5.40;;
68858;SDS011;55864;49.238;8.092;2023-06-14T00:04:29;9.25;;;4.63;;
68858;SDS011;55864;49.238;8.092;2023-06-14T00:06:30;9.15;;;5.13;;
68858;SDS011;55864;49.238;8.092;2023-06-14T00:08:30;8.52;;;4.72;;
68858;SDS011;55864;49.238;8.092;2023-06-14T00:10:31;9.45;;;5.05;;
68858;SDS011;55864;49.238;8.092;2023-06-14T00:12:31;10.30;;;5.05;;
68858;SDS011;55864;49.238;8.092;2023-06-14T00:14:32;10.45;;;4.75;;
68858;SDS011;55864;49.238;8.092;2023-06-14T00:16:32;7.90;;;4.63;;
68858;SDS011;55864;49.238;8.092;2023-06-14T00:18:33;8.52;;;5.15;;
68858;SDS011;55864;49.238;8.092;2023-06-14T00:20:35;11.38;;;4.82;;
68858;SDS011;55864;49.238;8.092;2023-06-14T00:22:35;9.45;;;4.88;;
68858;SDS011;55864;49.238;8.092;2023-06-14T00:24:36;10.63;;;4.95;;
68858;SDS011;55864;49.238;8.092;2023-06-14T00:26:37;8.63;;;5.07;;
68858;SDS011;55864;49.238;8.092;2023-06-14T00:28:37;8.82;;;4.78;;
68858;SDS011;55864;49.238;8.092;2023-06-14T00:30:40;9.50;;;4.97;;
68858;SDS011;55864;49.238;8.092;2023-06-14T00:32:40;10.35;;;5.63;;
68858;SDS011;55864;49.238;8.092;2023-06-14T00:34:41;8.73;;;4.72;;
68858;SDS011;55864;49.238;8.092;2023-06-14T00:36:43;8.23;;;4.82;;
68858;SDS011;55864;49.238;8.092;2023-06-14T00:38:44;8.57;;;4.63;;
68858;SDS011;55864;49.238;8.092;2023-06-14T00:40:44;9.85;;;4.82;;
68858;SDS011;55864;49.238;8.092;2023-06-14T00:42:47;9.00;;;4.32;;
68858;SDS011;55864;49.238;8.092;2023-06-14T00:44:48;13.65;;;5.10;;
68858;SDS011;55864;49.238;8.092;2023-06-14T00:46:48;9.52;;;5.10;;
68858;SDS011;55864;49.238;8.092;2023-06-14T00:48:49;9.23;;;4.55;;
68858;SDS011;55864;49.238;8.092;2023-06-14T00:50:50;7.82;;;4.70;;
68858;SDS011;55864;49.238;8.092;2023-06-14T00:52:53;8.77;;;5.05;;
68858;SDS011;55864;49.238;8.092;2023-06-14T00:54:54;9.52;;;4.65;;
68858;SDS011;55864;49.238;8.092;2023-06-14T00:56:54;10.43;;;4.63;;
68858;SDS011;55864;49.238;8.092;2023-06-14T00:58:55;7.97;;;4.95;;
68858;SDS011;55864;49.238;8.092;2023-06-14T01:00:56;8.77;;;4.95;;
68858;SDS011;55864;49.238;8.092;2023-06-14T01:02:57;11.48;;;5.15;;
68858;SDS011;55864;49.238;8.092;2023-06-14T01:04:57;7.93;;;4.72;;
68858;SDS011;55864;49.238;8.092;2023-06-14T01:06:59;8.88;;;4.90;;
68858;SDS011;55864;49.238;8.092;2023-06-14T01:09:11;9.35;;;4.55;;
68858;SDS011;55864;49.238;8.092;2023-06-14T01:11:21;9.15;;;5.32;;
68858;SDS011;55864;49.238;8.092;2023-06-14T01:13:26;7.97;;;5.05;;
68858;SDS011;55864;49.238;8.092;2023-06-14T01:15:31;7.88;;;4.72;;
68858;SDS011;55864;49.238;8.092;2023-06-14T01:17:33;9.43;;;4.70;;
68858;SDS011;55864;49.238;8.092;2023-06-14T01:19:34;8.38;;;4.90;;
68858;SDS011;55864;49.238;8.092;2023-06-14T01:21:35;8.18;;;4.90;;
68858;SDS011;55864;49.238;8.092;2023-06-14T01:23:36;9.05;;;4.75;;
68858;SDS011;55864;49.238;8.092;2023-06-14T01:25:37;8.48;;;4.90;;
68858;SDS011;55864;49.238;8.092;2023-06-14T01:27:38;9.75;;;4.65;;
68858;SDS011;55864;49.238;8.092;2023-06-14T01:29:38;8.05;;;4.32;;
68858;SDS011;55864;49.238;8.092;2023-06-14T01:31:40;8.73;;;4.60;;
68858;SDS011;55864;49.238;8.092;2023-06-14T01:33:40;10.80;;;4.75;;
68858;SDS011;55864;49.238;8.092;2023-06-14T01:35:41;9.82;;;4.30;;
68858;SDS011;55864;49.238;8.092;2023-06-14T01:37:43;12.50;;;4.45;;
68858;SDS011;55864;49.238;8.092;2023-06-14T01:39:45;8.40;;;4.80;;
68858;SDS011;55864;49.238;8.092;2023-06-14T01:41:47;9.52;;;4.60;;
68858;SDS011;55864;49.238;8.092;2023-06-14T01:43:49;9.00;;;4.53;;
68858;SDS011;55864;49.238;8.092;2023-06-14T01:45:51;8.10;;;4.80;;
68858;SDS011;55864;49.238;8.092;2023-06-14T01:47:53;7.75;;;4.50;;
68858;SDS011;55864;49.238;8.092;2023-06-14T01:49:55;7.57;;;4.30;;
68858;SDS011;55864;49.238;8.092;2023-06-14T01:51:55;9.57;;;4.82;;
68858;SDS011;55864;49.238;8.092;2023-06-14T01:53:56;12.82;;;4.97;;
68858;SDS011;55864;49.238;8.092;2023-06-14T01:55:58;8.55;;;4.85;;
68858;SDS011;55864;49.238;8.092;2023-06-14T01:57:59;8.57;;;4.55;;
68858;SDS011;55864;49.238;8.092;2023-06-14T02:00:00;9.68;;;4.88;;
68858;SDS011;55864;49.238;8.092;2023-06-14T02:02:02;9.27;;;4.53;;
68858;SDS011;55864;49.238;8.092;2023-06-14T02:04:03;9.30;;;5.10;;
68858;SDS011;55864;49.238;8.092;2023-06-14T02:06:04;9.30;;;4.70;;
68858;SDS011;55864;49.238;8.092;2023-06-14T02:08:04;10.15;;;4.30;;
68858;SDS011;55864;49.238;8.092;2023-06-14T02:10:05;7.78;;;4.88;;
68858;SDS011;55864;49.238;8.092;2023-06-14T02:12:08;9.10;;;4.90;;
68858;SDS011;55864;49.238;8.092;2023-06-14T02:14:09;9.02;;;4.97;;
68858;SDS011;55864;49.238;8.092;2023-06-14T02:16:09;9.07;;;4.55;;
68858;SDS011;55864;49.238;8.092;2023-06-14T02:18:12;9.03;;;4.40;;
68858;SDS011;55864;49.238;8.092;2023-06-14T02:20:12;8.18;;;4.68;;
68858;SDS011;55864;49.238;8.092;2023-06-14T02:22:13;9.00;;;4.70;;
68858;SDS011;55864;49.238;8.092;2023-06-14T02:24:14;8.32;;;4.80;;
68858;SDS011;55864;49.238;8.092;2023-06-14T02:26:15;8.98;;;5.30;;
68858;SDS011;55864;49.238;8.092;2023-06-14T02:28:16;8.95;;;4.28;;
68858;SDS011;55864;49.238;8.092;2023-06-14T02:30:17;8.25;;;5.00;;
68858;SDS011;55864;49.238;8.092;2023-06-14T02:32:18;10.30;;;4.68;;
68858;SDS011;55864;49.238;8.092;2023-06-14T02:34:19;8.77;;;5.15;;
68858;SDS011;55864;49.238;8.092;2023-06-14T02:36:21;7.07;;;4.60;;
68858;SDS011;55864;49.238;8.092;2023-06-14T02:38:21;9.02;;;4.78;;
68858;SDS011;55864;49.238;8.092;2023-06-14T02:40:22;15.32;;;5.57;;
68858;SDS011;55864;49.238;8.092;2023-06-14T02:42:23;8.98;;;4.90;;
68858;SDS011;55864;49.238;8.092;2023-06-14T02:44:25;9.40;;;4.85;;
68858;SDS011;55864;49.238;8.092;2023-06-14T02:46:26;7.75;;;4.68;;
68858;SDS011;55864;49.238;8.092;2023-06-14T02:48:27;8.20;;;4.90;;
68858;SDS011;55864;49.238;8.092;2023-06-14T02:50:28;7.97;;;4.47;;
68858;SDS011;55864;49.238;8.092;2023-06-14T02:52:28;7.43;;;4.28;;
68858;SDS011;55864;49.238;8.092;2023-06-14T02:54:29;9.88;;;4.60;;
68858;SDS011;55864;49.238;8.092;2023-06-14T02:56:29;8.60;;;4.80;;
68858;SDS011;55864;49.238;8.092;2023-06-14T02:58:31;8.10;;;5.00;;
68858;SDS011;55864;49.238;8.092;2023-06-14T03:00:33;9.20;;;5.70;;
68858;SDS011;55864;49.238;8.092;2023-06-14T03:02:33;9.50;;;5.50;;
68858;SDS011;55864;49.238;8.092;2023-06-14T03:04:34;8.50;;;5.00;;
68858;SDS011;55864;49.238;8.092;2023-06-14T03:06:34;9.07;;;4.75;;
68858;SDS011;55864;49.238;8.092;2023-06-14T03:08:35;10.20;;;4.75;;
68858;SDS011;55864;49.238;8.092;2023-06-14T03:10:36;9.82;;;5.05;;
68858;SDS011;55864;49.238;8.092;2023-06-14T03:12:36;8.07;;;4.35;;
68858;SDS011;55864;49.238;8.092;2023-06-14T03:14:37;9.13;;;4.80;;
68858;SDS011;55864;49.238;8.092;2023-06-14T03:16:39;7.70;;;4.80;;
68858;SDS011;55864;49.238;8.092;2023-06-14T03:18:42;9.25;;;5.47;;
68858;SDS011;55864;49.238;8.092;2023-06-14T03:20:43;9.23;;;4.70;;
68858;SDS011;55864;49.238;8.092;2023-06-14T03:22:44;9.45;;;4.82;;
68858;SDS011;55864;49.238;8.092;2023-06-14T03:24:44;9.10;;;4.95;;
68858;SDS011;55864;49.238;8.092;2023-06-14T03:26:48;9.50;;;4.63;;
68858;SDS011;55864;49.238;8.092;2023-06-14T03:28:49;7.45;;;4.45;;
68858;SDS011;55864;49.238;8.092;2023-06-14T03:30:50;9.10;;;4.78;;
68858;SDS011;55864;49.238;8.092;2023-06-14T03:32:52;7.38;;;4.32;;
68858;SDS011;55864;49.238;8.092;2023-06-14T03:34:53;9.27;;;4.80;;
68858;SDS011;55864;49.238;8.092;2023-06-14T03:36:57;8.45;;;4.75;;
68858;SDS011;55864;49.238;8.092;2023-06-14T03:38:57;9.82;;;4.45;;
68858;SDS011;55864;49.238;8.092;2023-06-14T03:40:58;9.02;;;4.55;;
68858;SDS011;55864;49.238;8.092;2023-06-14T03:42:59;8.80;;;4.65;;
68858;SDS011;55864;49.238;8.092;2023-06-14T03:44:59;8.55;;;5.05;;
68858;SDS011;55864;49.238;8.092;2023-06-14T03:47:01;8.55;;;4.57;;
68858;SDS011;55864;49.238;8.092;2023-06-14T03:49:04;8.23;;;4.93;;
68858;SDS011;55864;49.238;8.092;2023-06-14T03:51:05;8.70;;;5.10;;
68858;SDS011;55864;49.238;8.092;2023-06-14T03:53:05;10.07;;;4.78;;
68858;SDS011;55864;49.238;8.092;2023-06-14T03:55:06;9.18;;;4.65;;
68858;SDS011;55864;49.238;8.092;2023-06-14T03:57:07;8.45;;;4.72;;
68858;SDS011;55864;49.238;8.092;2023-06-14T03:59:08;8.73;;;4.85;;
68858;SDS011;55864;49.238;8.092;2023-06-14T04:01:08;7.82;;;4.60;;
68858;SDS011;55864;49.238;8.092;2023-06-14T04:03:09;7.32;;;4.18;;
68858;SDS011;55864;49.238;8.092;2023-06-14T04:05:11;10.40;;;4.85;;
68858;SDS011;55864;49.238;8.092;2023-06-14T04:07:17;10.35;;;5.18;;
68858;SDS011;55864;49.238;8.092;2023-06-14T04:09:18;7.65;;;4.47;;
68858;SDS011;55864;49.238;8.092;2023-06-14T04:11:18;9.60;;;4.82;;
68858;SDS011;55864;49.238;8.092;2023-06-14T04:13:19;10.30;;;4.65;;
68858;SDS011;55864;49.238;8.092;2023-06-14T04:15:19;7.95;;;5.03;;
68858;SDS011;55864;49.238;8.092;2023-06-14T04:17:20;10.38;;;4.72;;
68858;SDS011;55864;49.238;8.092;2023-06-14T04:19:21;7.75;;;4.65;;
68858;SDS011;55864;49.238;8.092;2023-06-14T04:21:23;9.68;;;4.82;;
68858;SDS011;55864;49.238;8.092;2023-06-14T04:23:26;9.82;;;4.82;;
68858;SDS011;55864;49.238;8.092;2023-06-14T04:25:26;10.48;;;4.70;;
68858;SDS011;55864;49.238;8.092;2023-06-14T04:27:27;8.27;;;4.78;;
68858;SDS011;55864;49.238;8.092;2023-06-14T04:29:28;9.80;;;5.03;;
68858;SDS011;55864;49.238;8.092;2023-06-14T04:31:34;9.55;;;4.95;;
68858;SDS011;55864;49.238;8.092;2023-06-14T04:33:37;9.27;;;5.45;;
68858;SDS011;55864;49.238;8.092;2023-06-14T04:35:37;10.23;;;4.90;;
68858;SDS011;55864;49.238;8.092;2023-06-14T04:37:39;8.43;;;4.90;;
68858;SDS011;55864;49.238;8.092;2023-06-14T04:39:40;9.38;;;5.53;;
68858;SDS011;55864;49.238;8.092;2023-06-14T04:41:41;8.43;;;5.00;;
68858;SDS011;55864;49.238;8.092;2023-06-14T04:43:42;9.77;;;5.22;;
68858;SDS011;55864;49.238;8.092;2023-06-14T04:45:44;11.98;;;5.32;;
68858;SDS011;55864;49.238;8.092;2023-06-14T04:47:44;12.98;;;4.90;;
68858;SDS011;55864;49.238;8.092;2023-06-14T04:49:45;9.90;;;5.50;;
68858;SDS011;55864;49.238;8.092;2023-06-14T04:51:45;9.57;;;5.30;;
68858;SDS011;55864;49.238;8.092;2023-06-14T04:53:47;10.23;;;5.45;;
68858;SDS011;55864;49.238;8.092;2023-06-14T04:55:48;9.73;;;5.32;;
68858;SDS011;55864;49.238;8.092;2023-06-14T04:57:49;9.90;;;5.05;;
68858;SDS011;55864;49.238;8.092;2023-06-14T04:59:49;10.38;;;5.30;;
68858;SDS011;55864;49.238;8.092;2023-06-14T05:01:50;11.05;;;5.50;;
68858;SDS011;55864;49.238;8.092;2023-06-14T05:03:51;11.05;;;5.53;;
68858;SDS011;55864;49.238;8.092;2023-06-14T05:05:52;12.45;;;5.50;;
68858;SDS011;55864;49.238;8.092;2023-06-14T05:07:53;9.05;;;5.05;;
68858;SDS011;55864;49.238;8.092;2023-06-14T05:09:55;10.88;;;5.57;;
68858;SDS011;55864;49.238;8.092;2023-06-14T05:11:55;12.10;;;5.35;;
68858;SDS011;55864;49.238;8.092;2023-06-14T05:13:56;10.60;;;5.47;;
68858;SDS011;55864;49.238;8.092;2023-06-14T05:15:57;9.20;;;5.95;;
68858;SDS011;55864;49.238;8.092;2023-06-14T05:17:58;10.85;;;5.97;;
68858;SDS011;55864;49.238;8.092;2023-06-14T05:19:58;13.57;;;5.90;;
68858;SDS011;55864;49.238;8.092;2023-06-14T05:21:59;9.77;;;5.40;;
68858;SDS011;55864;49.238;8.092;2023-06-14T05:23:59;9.93;;;5.50;;
68858;SDS011;55864;49.238;8.092;2023-06-14T05:26:01;10.88;;;5.57;;
68858;SDS011;55864;49.238;8.092;2023-06-14T05:28:02;12.50;;;5.60;;
68858;SDS011;55864;49.238;8.092;2023-06-14T05:30:03;13.73;;;5.65;;
68858;SDS011;55864;49.238;8.092;2023-06-14T05:32:04;11.48;;;5.47;;
68858;SDS011;55864;49.238;8.092;2023-06-14T05:34:05;12.63;;;5.60;;
68858;SDS011;55864;49.238;8.092;2023-06-14T05:36:06;18.17;;;5.90;;
68858;SDS011;55864;49.238;8.092;2023-06-14T05:38:06;10.80;;;5.15;;
68858;SDS011;55864;49.238;8.092;2023-06-14T05:40:07;11.07;;;5.30;;
68858;SDS011;55864;49.238;8.092;2023-06-14T05:42:10;10.27;;;5.43;;
68858;SDS011;55864;49.238;8.092;2023-06-14T05:44:10;8.75;;;5.10;;
68858;SDS011;55864;49.238;8.092;2023-06-14T05:46:11;9.60;;;4.75;;
68858;SDS011;55864;49.238;8.092;2023-06-14T05:48:12;11.13;;;5.40;;
68858;SDS011;55864;49.238;8.092;2023-06-14T05:50:12;10.95;;;5.22;;
68858;SDS011;55864;49.238;8.092;2023-06-14T05:52:13;10.88;;;5.30;;
68858;SDS011;55864;49.238;8.092;2023-06-14T05:54:13;10.05;;;5.03;;
68858;SDS011;55864;49.238;8.092;2023-06-14T05:56:14;10.05;;;5.22;;
68858;SDS011;55864;49.238;8.092;2023-06-14T05:58:16;9.45;;;5.10;;
68858;SDS011;55864;49.238;8.092;2023-06-14T06:00:17;8.85;;;4.85;;
68858;SDS011;55864;49.238;8.092;2023-06-14T06:02:18;9.70;;;5.00;;
68858;SDS011;55864;49.238;8.092;2023-06-14T06:04:18;10.20;;;5.40;;
68858;SDS011;55864;49.238;8.092;2023-06-14T06:06:19;8.35;;;5.03;;
68858;SDS011;55864;49.238;8.092;2023-06-14T06:08:19;11.65;;;5.10;;
68858;SDS011;55864;49.238;8.092;2023-06-14T06:10:20;9.05;;;5.30;;
68858;SDS011;55864;49.238;8.092;2023-06-14T06:12:21;8.93;;;5.07;;
68858;SDS011;55864;49.238;8.092;2023-06-14T06:14:23;9.48;;;5.05;;
68858;SDS011;55864;49.238;8.092;2023-06-14T06:16:23;10.68;;;5.30;;
68858;SDS011;55864;49.238;8.092;2023-06-14T06:18:24;9.30;;;4.97;;
68858;SDS011;55864;49.238;8.092;2023-06-14T06:20:24;9.93;;;5.03;;
68858;SDS011;55864;49.238;8.092;2023-06-14T06:22:25;9.63;;;5.22;;
68858;SDS011;55864;49.238;8.092;2023-06-14T06:24:25;10.23;;;5.15;;
68858;SDS011;55864;49.238;8.092;2023-06-14T06:26:26;9.45;;;5.00;;
68858;SDS011;55864;49.238;8.092;2023-06-14T06:28:26;14.38;;;5.15;;
68858;SDS011;55864;49.238;8.092;2023-06-14T06:30:28;10.07;;;5.18;;
68858;SDS011;55864;49.238;8.092;2023-06-14T06:32:29;10.30;;;5.15;;
68858;SDS011;55864;49.238;8.092;2023-06-14T06:34:29;11.00;;;5.65;;
68858;SDS011;55864;49.238;8.092;2023-06-14T06:36:30;10.43;;;4.97;;
68858;SDS011;55864;49.238;8.092;2023-06-14T06:38:31;10.23;;;5.50;;
68858;SDS011;55864;49.238;8.092;2023-06-14T06:40:31;12.30;;;5.30;;
68858;SDS011;55864;49.238;8.092;2023-06-14T06:42:32;11.70;;;5.07;;
68858;SDS011;55864;49.238;8.092;2023-06-14T06:44:36;12.55;;;5.40;;
68858;SDS011;55864;49.238;8.092;2023-06-14T06:46:38;14.15;;;5.43;;
68858;SDS011;55864;49.238;8.092;2023-06-14T06:48:39;10.18;;;4.68;;
68858;SDS011;55864;49.238;8.092;2023-06-14T06:50:39;11.00;;;5.18;;
68858;SDS011;55864;49.238;8.092;2023-06-14T06:52:40;11.65;;;4.85;;
68858;SDS011;55864;49.238;8.092;2023-06-14T06:54:40;11.75;;;5.35;;
68858;SDS011;55864;49.238;8.092;2023-06-14T06:56:41;11.52;;;5.10;;
68858;SDS011;55864;49.238;8.092;2023-06-14T06:58:42;11.73;;;5.22;;
68858;SDS011;55864;49.238;8.092;2023-06-14T07:00:42;8.77;;;4.97;;
68858;SDS011;55864;49.238;8.092;2023-06-14T07:02:44;10.20;;;5.43;;
68858;SDS011;55864;49.238;8.092;2023-06-14T07:04:45;11.90;;;5.50;;
68858;SDS011;55864;49.238;8.092;2023-06-14T07:06:46;9.65;;;5.07;;
68858;SDS011;55864;49.238;8.092;2023-06-14T07:08:46;11.35;;;4.93;;
68858;SDS011;55864;49.238;8.092;2023-06-14T07:10:47;13.32;;;5.05;;
68858;SDS011;55864;49.238;8.092;2023-06-14T07:12:48;13.48;;;5.50;;
68858;SDS011;55864;49.238;8.092;2023-06-14T07:14:48;9.80;;;5.20;;
68858;SDS011;55864;49.238;8.092;2023-06-14T07:16:49;15.25;;;5.72;;
68858;SDS011;55864;49.238;8.092;2023-06-14T07:18:51;9.18;;;5.03;;
68858;SDS011;55864;49.238;8.092;2023-06-14T07:20:51;13.02;;;5.25;;
68858;SDS011;55864;49.238;8.092;2023-06-14T07:22:52;12.50;;;4.93;;
68858;SDS011;55864;49.238;8.092;2023-06-14T07:24:52;11.80;;;5.50;;
68858;SDS011;55864;49.238;8.092;2023-06-14T07:26:53;15.63;;;7.80;;
68858;SDS011;55864;49.238;8.092;2023-06-14T07:28:54;18.63;;;9.02;;
68858;SDS011;55864;49.238;8.092;2023-06-14T07:30:54;18.15;;;9.00;;
68858;SDS011;55864;49.238;8.092;2023-06-14T07:32:55;13.50;;;6.70;;
68858;SDS011;55864;49.238;8.092;2023-06-14T07:34:57;16.75;;;7.90;;
68858;SDS011;55864;49.238;8.092;2023-06-14T07:36:58;13.20;;;7.45;;
68858;SDS011;55864;49.238;8.092;2023-06-14T07:38:58;13.02;;;7.65;;
68858;SDS011;55864;49.238;8.092;2023-06-14T07:40:59;13.73;;;7.63;;
68858;SDS011;55864;49.238;8.092;2023-06-14T07:42:59;11.63;;;6.97;;
68858;SDS011;55864;49.238;8.092;2023-06-14T07:45:00;10.80;;;6.85;;
68858;SDS011;55864;49.238;8.092;2023-06-14T07:47:01;10.15;;;6.00;;
68858;SDS011;55864;49.238;8.092;2023-06-14T07:49:05;16.38;;;7.38;;
68858;SDS011;55864;49.238;8.092;2023-06-14T07:51:07;13.10;;;6.70;;
68858;SDS011;55864;49.238;8.092;2023-06-14T07:53:08;11.47;;;6.83;;
68858;SDS011;55864;49.238;8.092;2023-06-14T07:55:08;11.50;;;5.40;;
68858;SDS011;55864;49.238;8.092;2023-06-14T07:57:09;9.13;;;5.72;;
68858;SDS011;55864;49.238;8.092;2023-06-14T07:59:09;10.02;;;5.65;;
68858;SDS011;55864;49.238;8.092;2023-06-14T08:01:10;10.35;;;5.43;;
68858;SDS011;55864;49.238;8.092;2023-06-14T08:03:10;10.68;;;5.47;;
68858;SDS011;55864;49.238;8.092;2023-06-14T08:05:11;11.85;;;5.65;;
68858;SDS011;55864;49.238;8.092;2023-06-14T08:07:13;10.43;;;5.40;;
68858;SDS011;55864;49.238;8.092;2023-06-14T08:09:14;11.17;;;5.30;;
68858;SDS011;55864;49.238;8.092;2023-06-14T08:11:14;11.10;;;5.65;;
68858;SDS011;55864;49.238;8.092;2023-06-14T08:13:15;11.05;;;5.68;;
68858;SDS011;55864;49.238;8.092;2023-06-14T08:15:16;10.98;;;5.40;;
68858;SDS011;55864;49.238;8.092;2023-06-14T08:17:16;12.35;;;6.03;;
68858;SDS011;55864;49.238;8.092;2023-06-14T08:19:17;12.32;;;6.05;;
68858;SDS011;55864;49.238;8.092;2023-06-14T08:21:17;12.35;;;6.03;;
68858;SDS011;55864;49.238;8.092;2023-06-14T08:23:19;11.38;;;5.88;;
68858;SDS011;55864;49.238;8.092;2023-06-14T08:25:20;9.00;;;5.50;;
68858;SDS011;55864;49.238;8.092;2023-06-14T08:27:21;11.60;;;5.45;;
68858;SDS011;55864;49.238;8.092;2023-06-14T08:29:21;11.50;;;5.35;;
68858;SDS011;55864;49.238;8.092;2023-06-14T08:31:22;10.02;;;5.85;;
68858;SDS011;55864;49.238;8.092;2023-06-14T08:33:23;12.48;;;5.95;;
68858;SDS011;55864;49.238;8.092;2023-06-14T08:35:24;10.95;;;5.80;;
68858;SDS011;55864;49.238;8.092;2023-06-14T08:37:26;9.77;;;5.68;;
68858;SDS011;55864;49.238;8.092;2023-06-14T08:39:32;9.60;;;5.25;;
68858;SDS011;55864;49.238;8.092;2023-06-14T08:41:34;10.02;;;5.20;;
68858;SDS011;55864;49.238;8.092;2023-06-14T08:43:35;8.33;;;5.57;;
68858;SDS011;55864;49.238;8.092;2023-06-14T08:45:36;15.32;;;6.82;;
68858;SDS011;55864;49.238;8.092;2023-06-14T08:47:37;13.35;;;5.35;;
68858;SDS011;55864;49.238;8.092;2023-06-14T08:49:38;13.90;;;5.85;;
68858;SDS011;55864;49.238;8.092;2023-06-14T08:51:44;12.50;;;5.65;;
68858;SDS011;55864;49.238;8.092;2023-06-14T08:53:45;13.13;;;5.63;;
68858;SDS011;55864;49.238;8.092;2023-06-14T08:55:49;11.50;;;5.47;;
68858;SDS011;55864;49.238;8.092;2023-06-14T08:57:50;9.18;;;5.35;;
68858;SDS011;55864;49.238;8.092;2023-06-14T08:59:51;11.52;;;5.53;;
68858;SDS011;55864;49.238;8.092;2023-06-14T09:01:52;9.35;;;5.57;;
68858;SDS011;55864;49.238;8.092;2023-06-14T09:03:53;11.45;;;4.80;;
68858;SDS011;55864;49.238;8.092;2023-06-14T09:05:54;10.90;;;5.75;;
68858;SDS011;55864;49.238;8.092;2023-06-14T09:07:54;11.68;;;5.47;;
68858;SDS011;55864;49.238;8.092;2023-06-14T09:10:04;12.27;;;5.80;;
68858;SDS011;55864;49.238;8.092;2023-06-14T09:12:09;9.15;;;5.85;;
68858;SDS011;55864;49.238;8.092;2023-06-14T09:14:10;9.05;;;5.53;;
68858;SDS011;55864;49.238;8.092;2023-06-14T09:16:11;11.38;;;5.63;;
68858;SDS011;55864;49.238;8.092;2023-06-14T09:18:12;9.85;;;5.50;;
68858;SDS011;55864;49.238;8.092;2023-06-14T09:20:13;16.25;;;5.55;;
68858;SDS011;55864;49.238;8.092;2023-06-14T09:22:13;13.85;;;5.63;;
68858;SDS011;55864;49.238;8.092;2023-06-14T09:24:16;8.88;;;5.35;;
68858;SDS011;55864;49.238;8.092;2023-06-14T09:26:17;9.98;;;5.03;;
68858;SDS011;55864;49.238;8.092;2023-06-14T09:28:20;16.40;;;5.82;;
68858;SDS011;55864;49.238;8.092;2023-06-14T09:30:27;11.55;;;5.22;;
68858;SDS011;55864;49.238;8.092;2023-06-14T09:32:28;13.55;;;4.93;;
68858;SDS011;55864;49.238;8.092;2023-06-14T09:34:29;9.57;;;5.22;;
68858;SDS011;55864;49.238;8.092;2023-06-14T09:36:31;9.63;;;5.30;;
68858;SDS011;55864;49.238;8.092;2023-06-14T09:38:32;10.15;;;5.53;;
68858;SDS011;55864;49.238;8.092;2023-06-14T09:40:35;9.57;;;5.57;;
68858;SDS011;55864;49.238;8.092;2023-06-14T09:42:35;10.20;;;5.22;;
68858;SDS011;55864;49.238;8.092;2023-06-14T09:44:38;9.10;;;5.25;;
68858;SDS011;55864;49.238;8.092;2023-06-14T09:46:39;7.95;;;4.78;;
68858;SDS011;55864;49.238;8.092;2023-06-14T09:48:40;8.80;;;4.60;;
68858;SDS011;55864;49.238;8.092;2023-06-14T09:50:40;7.97;;;4.68;;
68858;SDS011;55864;49.238;8.092;2023-06-14T09:52:41;9.93;;;4.47;;
68858;SDS011;55864;49.238;8.092;2023-06-14T09:54:45;10.38;;;4.80;;
68858;SDS011;55864;49.238;8.092;2023-06-14T09:58:47;7.82;;;5.05;;
68858;SDS011;55864;49.238;8.092;2023-06-14T10:00:55;10.05;;;4.70;;
68858;SDS011;55864;49.238;8.092;2023-06-14T10:02:58;9.20;;;4.70;;
68858;SDS011;55864;49.238;8.092;2023-06-14T10:05:03;12.30;;;5.05;;
68858;SDS011;55864;49.238;8.092;2023-06-14T10:07:05;9.32;;;4.80;;
68858;SDS011;55864;49.238;8.092;2023-06-14T10:09:07;9.80;;;4.35;;
68858;SDS011;55864;49.238;8.092;2023-06-14T10:11:08;12.38;;;4.78;;
68858;SDS011;55864;49.238;8.092;2023-06-14T10:13:11;9.77;;;4.68;;
68858;SDS011;55864;49.238;8.092;2023-06-14T10:15:15;9.93;;;5.03;;
68858;SDS011;55864;49.238;8.092;2023-06-14T10:17:26;10.82;;;5.13;;
68858;SDS011;55864;49.238;8.092;2023-06-14T10:19:34;10.50;;;4.68;;
68858;SDS011;55864;49.238;8.092;2023-06-14T10:21:41;7.63;;;5.00;;
68858;SDS011;55864;49.238;8.092;2023-06-14T10:23:46;9.55;;;4.70;;
68858;SDS011;55864;49.238;8.092;2023-06-14T10:27:50;10.27;;;5.15;;
68858;SDS011;55864;49.238;8.092;2023-06-14T10:30:03;9.38;;;4.53;;
68858;SDS011;55864;49.238;8.092;2023-06-14T10:32:05;11.75;;;4.47;;
68858;SDS011;55864;49.238;8.092;2023-06-14T10:34:08;9.80;;;5.38;;
68858;SDS011;55864;49.238;8.092;2023-06-14T10:36:09;8.30;;;4.32;;
68858;SDS011;55864;49.238;8.092;2023-06-14T10:38:29;11.10;;;4.50;;
68858;SDS011;55864;49.238;8.092;2023-06-14T10:40:31;12.02;;;5.10;;
68858;SDS011;55864;49.238;8.092;2023-06-14T10:42:32;9.48;;;4.15;;
68858;SDS011;55864;49.238;8.092;2023-06-14T10:44:33;11.55;;;4.97;;
68858;SDS011;55864;49.238;8.092;2023-06-14T10:46:45;9.18;;;4.47;;
68858;SDS011;55864;49.238;8.092;2023-06-14T10:48:46;8.20;;;4.70;;
68858;SDS011;55864;49.238;8.092;2023-06-14T10:50:48;6.85;;;4.07;;
68858;SDS011;55864;49.238;8.092;2023-06-14T10:52:49;7.90;;;4.20;;
68858;SDS011;55864;49.238;8.092;2023-06-14T10:54:59;8.35;;;4.60;;
68858;SDS011;55864;49.238;8.092;2023-06-14T10:57:06;8.05;;;4.53;;
68858;SDS011;55864;49.238;8.092;2023-06-14T10:59:07;7.60;;;3.60;;
68858;SDS011;55864;49.238;8.092;2023-06-14T11:01:07;8.15;;;4.15;;
68858;SDS011;55864;49.238;8.092;2023-06-14T11:03:22;9.10;;;4.10;;
68858;SDS011;55864;49.238;8.092;2023-06-14T11:05:49;10.20;;;4.60;;
68858;SDS011;55864;49.238;8.092;2023-06-14T11:07:55;8.60;;;4.40;;
68858;SDS011;55864;49.238;8.092;2023-06-14T11:10:11;8.20;;;4.40;;
68858;SDS011;55864;49.238;8.092;2023-06-14T11:12:26;7.85;;;3.90;;
68858;SDS011;55864;49.238;8.092;2023-06-14T11:14:31;8.73;;;3.95;;
68858;SDS011;55864;49.238;8.092;2023-06-14T11:16:32;7.88;;;3.95;;
68858;SDS011;55864;49.238;8.092;2023-06-14T11:18:33;8.52;;;4.65;;
68858;SDS011;55864;49.238;8.092;2023-06-14T11:20:34;10.02;;;4.25;;
68858;SDS011;55864;49.238;8.092;2023-06-14T11:22:41;8.73;;;4.22;;
68858;SDS011;55864;49.238;8.092;2023-06-14T11:24:42;6.55;;;4.18;;
68858;SDS011;55864;49.238;8.092;2023-06-14T11:26:43;6.50;;;3.70;;
68858;SDS011;55864;49.238;8.092;2023-06-14T11:28:43;8.77;;;3.85;;
68858;SDS011;55864;49.238;8.092;2023-06-14T11:30:44;8.75;;;4.63;;
68858;SDS011;55864;49.238;8.092;2023-06-14T11:32:46;9.38;;;4.43;;
68858;SDS011;55864;49.238;8.092;2023-06-14T11:34:46;7.47;;;3.92;;
68858;SDS011;55864;49.238;8.092;2023-06-14T11:36:47;10.80;;;4.25;;
68858;SDS011;55864;49.238;8.092;2023-06-14T11:38:49;9.70;;;4.50;;
68858;SDS011;55864;49.238;8.092;2023-06-14T11:40:50;8.77;;;4.10;;
68858;SDS011;55864;49.238;8.092;2023-06-14T11:42:57;6.55;;;3.80;;
68858;SDS011;55864;49.238;8.092;2023-06-14T11:44:58;8.48;;;3.80;;
68858;SDS011;55864;49.238;8.092;2023-06-14T11:46:59;11.15;;;4.10;;
68858;SDS011;55864;49.238;8.092;2023-06-14T11:49:04;8.75;;;4.15;;
68858;SDS011;55864;49.238;8.092;2023-06-14T11:51:05;9.48;;;4.10;;
68858;SDS011;55864;49.238;8.092;2023-06-14T11:53:06;9.77;;;4.63;;
68858;SDS011;55864;49.238;8.092;2023-06-14T11:55:09;9.80;;;3.83;;
68858;SDS011;55864;49.238;8.092;2023-06-14T11:57:10;8.30;;;4.18;;
68858;SDS011;55864;49.238;8.092;2023-06-14T11:59:11;6.45;;;3.90;;
68858;SDS011;55864;49.238;8.092;2023-06-14T12:01:17;6.10;;;3.70;;
68858;SDS011;55864;49.238;8.092;2023-06-14T12:03:18;10.02;;;4.30;;
68858;SDS011;55864;49.238;8.092;2023-06-14T12:05:23;10.20;;;3.70;;
68858;SDS011;55864;49.238;8.092;2023-06-14T12:07:24;7.28;;;3.60;;
68858;SDS011;55864;49.238;8.092;2023-06-14T12:09:25;9.90;;;4.07;;
68858;SDS011;55864;49.238;8.092;2023-06-14T12:11:32;8.05;;;3.90;;
68858;SDS011;55864;49.238;8.092;2023-06-14T12:13:34;7.40;;;4.22;;